Time;durP1;ratioP1;P1;durP2;ratioP2;P2;SDS_P1;SDS_P2;PMS_P1;PMS_P2;Temp;Humidity;BMP_temperature;BMP_pressure;BME280_temperature;BME280_humidity;BME280_pressure;Samples;Min_cycle;Max_cycle;Signal;HPM_P1;HPM_P2
2023/07/16 09:53:36;;;;;;;2.92;1.85;;;21.90;99.90;;;;;;4880139;29;20757;-72
2023/07/16 09:56:04;;;;;;;4.85;2.35;;;22.00;99.90;;;;;;4882477;29;20215;-76
2023/07/16 09:58:32;;;;;;;3.53;1.80;;;22.30;99.90;;;;;;4882491;29;20239;-79
2023/07/16 10:01:00;;;;;;;2.60;1.60;;;22.90;99.90;;;;;;4882488;29;20211;-80
2023/07/16 10:03:27;;;;;;;5.85;2.08;;;23.30;99.90;;;;;;4882379;29;20221;-79
2023/07/16 10:05:54;;;;;;;3.72;1.70;;;23.30;99.90;;;;;;4882065;29;20215;-78
2023/07/16 10:08:21;;;;;;;4.47;1.70;;;23.50;99.90;;;;;;4882186;29;20235;-78
2023/07/16 10:10:56;;;;;;;3.70;1.67;;;23.30;99.90;;;;;;4878204;29;20246;-69
2023/07/16 10:13:24;;;;;;;3.55;1.50;;;23.50;99.90;;;;;;4880810;29;20306;-70
2023/07/16 10:15:55;;;;;;;5.05;2.00;;;23.60;99.90;;;;;;4880642;29;20234;-70
2023/07/16 10:18:30;;;;;;;3.90;1.58;;;23.30;99.90;;;;;;4880285;29;20250;-71
2023/07/16 10:21:01;;;;;;;3.75;1.60;;;23.10;99.90;;;;;;4881104;29;20242;-81
2023/07/16 10:23:39;;;;;;;4.18;1.75;;;23.10;99.90;;;;;;4880630;29;20207;-71
2023/07/16 10:26:12;;;;;;;3.63;1.90;;;23.00;99.90;;;;;;4881711;29;20267;-75
2023/07/16 10:28:40;;;;;;;4.07;1.55;;;22.90;99.90;;;;;;4881508;29;20226;-75
2023/07/16 10:31:17;;;;;;;4.05;1.88;;;22.70;99.90;;;;;;4881626;29;20235;-76
2023/07/16 10:33:44;;;;;;;4.82;1.67;;;22.40;99.90;;;;;;4881938;29;20211;-75
2023/07/16 10:36:11;;;;;;;5.95;1.80;;;22.40;99.90;;;;;;4882015;29;20654;-74
2023/07/16 10:38:42;;;;;;;3.20;1.70;;;22.20;99.90;;;;;;4881776;29;20317;-75
2023/07/16 10:41:10;;;;;;;4.85;1.80;;;22.30;99.90;;;;;;4881524;29;20645;-75
2023/07/16 10:43:37;;;;;;;3.13;1.60;;;22.40;99.90;;;;;;4881556;29;20211;-76
2023/07/16 10:46:04;;;;;;;4.32;2.08;;;22.50;99.90;;;;;;4881705;29;20568;-76
2023/07/16 10:48:31;;;;;;;5.00;1.70;;;22.40;99.90;;;;;;4881664;29;20601;-74
2023/07/16 10:50:58;;;;;;;4.28;1.42;;;22.30;99.90;;;;;;4881332;29;20239;-74
2023/07/16 10:53:25;;;;;;;4.20;1.70;;;22.30;99.90;;;;;;4880203;29;20636;-75
2023/07/16 10:55:51;;;;;;;4.97;1.92;;;22.20;99.90;;;;;;4881090;29;20226;-75
2023/07/16 10:58:20;;;;;;;4.78;1.90;;;22.10;99.90;;;;;;4881345;29;20226;-75
2023/07/16 11:00:46;;;;;;;4.30;1.85;;;21.90;99.90;;;;;;4881453;29;20218;-75
2023/07/16 11:03:17;;;;;;;5.65;1.92;;;22.40;99.90;;;;;;4881373;29;20211;-74
2023/07/16 11:05:46;;;;;;;4.25;2.20;;;22.70;99.90;;;;;;4881057;29;20266;-75
2023/07/16 11:08:22;;;;;;;4.03;1.75;;;23.20;99.90;;;;;;4880669;29;20591;-76
2023/07/16 11:10:54;;;;;;;4.97;1.75;;;23.50;99.90;;;;;;4881021;29;20242;-75
2023/07/16 11:13:26;;;;;;;3.22;1.65;;;23.30;99.90;;;;;;4881304;29;20215;-76
2023/07/16 11:15:53;;;;;;;4.25;1.85;;;23.80;99.90;;;;;;4881300;29;20221;-77
2023/07/16 11:18:22;;;;;;;5.32;2.00;;;23.80;99.90;;;;;;4881003;29;20317;-75
2023/07/16 11:20:52;;;;;;;8.27;2.45;;;23.70;99.90;;;;;;4880852;29;20586;-75
2023/07/16 11:23:19;;;;;;;3.70;1.98;;;23.50;99.90;;;;;;4881057;29;20270;-76
2023/07/16 11:25:47;;;;;;;3.78;1.55;;;23.50;99.90;;;;;;4880948;29;20297;-75
2023/07/16 11:28:14;;;;;;;3.85;1.95;;;23.50;99.90;;;;;;4880875;29;20710;-76
2023/07/16 11:30:43;;;;;;;5.28;1.70;;;23.70;99.90;;;;;;4880823;29;20241;-77
2023/07/16 11:33:11;;;;;;;5.45;1.98;;;23.80;99.90;;;;;;4880573;29;20675;-75
2023/07/16 11:35:39;;;;;;;5.00;1.70;;;23.50;99.90;;;;;;4880678;29;20207;-72
2023/07/16 11:38:06;;;;;;;4.22;2.08;;;23.50;99.90;;;;;;4880284;29;20242;-76
2023/07/16 11:40:35;;;;;;;3.78;1.50;;;23.40;99.90;;;;;;4880619;29;20937;-74
2023/07/16 11:43:09;;;;;;;3.03;1.35;;;23.20;99.90;;;;;;4880362;29;20740;-71
2023/07/16 11:45:36;;;;;;;3.45;1.63;;;22.90;99.90;;;;;;4880461;29;20211;-77
2023/07/16 11:48:05;;;;;;;3.20;1.60;;;22.70;99.90;;;;;;4880022;29;20214;-75
2023/07/16 11:50:32;;;;;;;6.70;3.67;;;22.60;99.90;;;;;;4880420;29;20574;-76
2023/07/16 11:53:01;;;;;;;5.85;2.25;;;22.50;99.90;;;;;;4880375;29;20215;-77
2023/07/16 11:55:28;;;;;;;4.97;2.72;;;22.10;99.90;;;;;;4880130;29;20223;-76
2023/07/16 11:57:56;;;;;;;3.08;1.73;;;22.00;99.90;;;;;;4880268;29;20673;-75
2023/07/16 12:00:23;;;;;;;3.58;1.67;;;21.80;99.90;;;;;;4880258;29;20211;-76
2023/07/16 12:02:51;;;;;;;4.15;1.90;;;22.00;99.90;;;;;;4880661;29;20303;-75
2023/07/16 12:05:20;;;;;;;3.17;1.50;;;22.40;99.90;;;;;;4879898;29;20211;-75
2023/07/16 12:07:47;;;;;;;4.05;1.85;;;22.70;99.90;;;;;;4879841;29;20211;-76
2023/07/16 12:10:14;;;;;;;6.70;1.60;;;23.00;99.90;;;;;;4879884;29;20745;-76
2023/07/16 12:12:40;;;;;;;5.38;1.85;;;23.10;99.90;;;;;;4880014;29;20239;-74
2023/07/16 12:15:08;;;;;;;5.88;1.60;;;23.20;99.90;;;;;;4880043;29;20294;-75
2023/07/16 12:17:35;;;;;;;2.65;1.65;;;23.30;99.90;;;;;;4880037;29;20218;-73
2023/07/16 12:20:03;;;;;;;4.93;1.88;;;23.50;99.90;;;;;;4879753;29;20269;-76
2023/07/16 12:22:31;;;;;;;3.63;1.63;;;23.50;99.90;;;;;;4880014;29;20271;-74
2023/07/16 12:24:58;;;;;;;3.88;1.42;;;23.70;99.90;;;;;;4879831;29;20207;-75
2023/07/16 12:27:25;;;;;;;2.85;1.45;;;23.80;99.90;;;;;;4879971;29;20639;-73
2023/07/16 12:29:52;;;;;;;3.65;1.38;;;24.10;99.90;;;;;;4879909;29;20231;-75
2023/07/16 12:32:20;;;;;;;2.80;1.50;;;24.40;99.90;;;;;;4879769;29;20238;-76
2023/07/16 12:34:46;;;;;;;4.35;1.30;;;24.70;99.90;;;;;;4879893;29;20243;-76
2023/07/16 12:37:13;;;;;;;4.65;1.63;;;25.10;99.90;;;;;;4879911;29;20221;-75
2023/07/16 12:39:41;;;;;;;3.08;1.40;;;25.10;99.90;;;;;;4879692;29;20585;-71
2023/07/16 12:42:08;;;;;;;4.35;1.45;;;25.20;99.90;;;;;;4879675;29;20215;-75
2023/07/16 12:44:35;;;;;;;4.63;1.60;;;25.00;99.90;;;;;;4879609;29;20234;-76
2023/07/16 12:47:02;;;;;;;2.53;1.35;;;24.60;99.90;;;;;;4879488;29;20215;-74
2023/07/16 12:49:29;;;;;;;2.90;1.50;;;24.60;99.90;;;;;;4879492;29;20325;-74
2023/07/16 12:51:55;;;;;;;2.15;1.40;;;24.50;99.90;;;;;;4879319;29;20243;-75
2023/07/16 12:54:23;;;;;;;5.00;1.83;;;24.80;99.90;;;;;;4879377;29;20692;-74
2023/07/16 12:56:51;;;;;;;4.68;1.58;;;25.20;99.90;;;;;;4879348;29;20211;-74
2023/07/16 12:59:18;;;;;;;2.25;1.30;;;25.20;99.90;;;;;;4879330;29;20420;-75
2023/07/16 13:01:45;;;;;;;3.92;1.55;;;25.20;99.90;;;;;;4879515;29;20217;-75
2023/07/16 13:04:11;;;;;;;2.08;1.23;;;25.20;99.90;;;;;;4879583;29;20207;-74
2023/07/16 13:06:38;;;;;;;3.90;1.60;;;24.80;99.90;;;;;;4879304;29;20211;-74
2023/07/16 13:09:05;;;;;;;5.43;1.77;;;24.80;99.90;;;;;;4878931;29;20231;-72
2023/07/16 13:11:32;;;;;;;4.47;1.52;;;24.90;99.90;;;;;;4879337;29;20254;-74
2023/07/16 13:14:00;;;;;;;3.22;1.10;;;25.20;99.90;;;;;;4879105;29;20214;-74
2023/07/16 13:16:27;;;;;;;4.93;1.40;;;25.10;99.90;;;;;;4879360;29;20217;-76
2023/07/16 13:18:54;;;;;;;2.58;1.30;;;25.00;99.90;;;;;;4882948;29;20233;-72
2023/07/16 13:21:21;;;;;;;3.78;1.60;;;24.80;99.90;;;;;;4882732;29;20237;-74
2023/07/16 13:23:48;;;;;;;4.82;1.52;;;24.80;99.90;;;;;;4882675;29;20213;-75
2023/07/16 13:26:14;;;;;;;3.10;1.48;;;24.80;99.90;;;;;;4882854;29;20577;-73
2023/07/16 13:28:41;;;;;;;2.88;1.20;;;24.70;99.90;;;;;;4882976;29;20318;-71
2023/07/16 13:31:09;;;;;;;2.38;1.27;;;24.30;99.90;;;;;;4882956;29;20306;-75
2023/07/16 13:33:36;;;;;;;3.13;1.42;;;24.30;99.90;;;;;;4882712;29;20213;-71
2023/07/16 13:36:04;;;;;;;2.95;1.20;;;24.30;99.90;;;;;;4882655;29;20700;-74
2023/07/16 13:38:31;;;;;;;2.40;1.20;;;24.20;99.90;;;;;;4882465;29;20643;-75
2023/07/16 13:40:58;;;;;;;2.63;1.15;;;23.90;99.90;;;;;;4880269;29;20617;-74
2023/07/16 13:43:25;;;;;;;2.50;1.27;;;23.90;99.90;;;;;;4881679;29;20213;-78
2023/07/16 13:45:52;;;;;;;3.55;1.48;;;23.80;99.90;;;;;;4882249;29;20214;-73
2023/07/16 13:48:20;;;;;;;3.70;1.27;;;23.60;99.90;;;;;;4881987;29;20231;-75
2023/07/16 13:50:46;;;;;;;2.05;1.23;;;23.50;99.90;;;;;;4881630;29;20211;-75
2023/07/16 13:53:14;;;;;;;2.10;1.40;;;23.50;99.90;;;;;;4881726;29;20785;-77
2023/07/16 13:55:41;;;;;;;2.33;1.30;;;23.20;99.90;;;;;;4881781;29;20203;-75
2023/07/16 13:58:08;;;;;;;2.85;1.17;;;23.00;99.90;;;;;;4882239;29;20213;-74
2023/07/16 14:00:34;;;;;;;3.42;1.13;;;23.10;99.90;;;;;;4881722;29;20294;-78
2023/07/16 14:03:01;;;;;;;2.13;1.20;;;23.30;99.90;;;;;;4882000;29;20291;-72
2023/07/16 14:05:30;;;;;;;2.17;1.00;;;23.50;99.90;;;;;;4881988;29;20301;-78
2023/07/16 14:07:56;;;;;;;1.95;1.05;;;23.70;99.90;;;;;;4881935;29;20306;-77
2023/07/16 14:10:23;;;;;;;5.32;0.85;;;24.10;99.90;;;;;;4881632;29;20309;-75
2023/07/16 14:12:50;;;;;;;2.40;1.13;;;24.40;99.90;;;;;;4882024;29;20238;-75
2023/07/16 14:15:17;;;;;;;1.98;1.15;;;24.60;99.90;;;;;;4881733;29;20662;-76
2023/07/16 14:17:44;;;;;;;2.03;0.90;;;24.70;99.90;;;;;;4882114;29;20215;-78
2023/07/16 14:20:11;;;;;;;3.33;1.30;;;24.70;99.90;;;;;;4881433;29;20722;-78
2023/07/16 14:22:39;;;;;;;3.15;0.90;;;24.90;99.90;;;;;;4881628;29;20211;-79
2023/07/16 14:25:08;;;;;;;1.55;1.00;;;25.10;99.90;;;;;;4881891;29;20242;-75
2023/07/16 14:27:35;;;;;;;3.08;1.08;;;25.10;99.90;;;;;;4881240;29;20215;-76
2023/07/16 14:30:02;;;;;;;1.80;1.08;;;25.20;99.90;;;;;;4881777;29;20594;-78
2023/07/16 14:32:31;;;;;;;2.63;1.00;;;25.30;99.90;;;;;;4880978;29;20242;-74
2023/07/16 14:34:58;;;;;;;3.22;1.20;;;25.20;99.90;;;;;;4881733;29;20240;-77
2023/07/16 14:37:25;;;;;;;3.15;1.10;;;25.20;99.90;;;;;;4881049;29;20290;-76
2023/07/16 14:39:53;;;;;;;5.10;1.38;;;25.20;99.90;;;;;;4881244;29;20241;-78
2023/07/16 14:42:20;;;;;;;2.90;1.50;;;25.40;99.90;;;;;;4880853;29;20207;-76
2023/07/16 14:44:46;;;;;;;1.80;1.10;;;25.30;99.90;;;;;;4881071;29;20527;-77
2023/07/16 14:47:13;;;;;;;1.33;1.13;;;25.00;99.90;;;;;;4880986;29;20659;-76
2023/07/16 14:49:40;;;;;;;3.15;1.50;;;25.10;99.90;;;;;;4881455;29;20625;-76
2023/07/16 14:52:07;;;;;;;3.00;1.30;;;25.20;99.90;;;;;;4880992;29;20324;-75
2023/07/16 14:54:35;;;;;;;4.10;1.55;;;25.30;99.90;;;;;;4880899;29;20211;-77
2023/07/16 14:57:05;;;;;;;2.72;1.30;;;25.20;99.90;;;;;;4880927;29;20270;-74
2023/07/16 14:59:31;;;;;;;3.20;1.40;;;25.10;99.90;;;;;;4880916;29;20261;-76
2023/07/16 15:01:58;;;;;;;1.98;1.40;;;25.10;99.90;;;;;;4880928;29;20302;-77
2023/07/16 15:04:25;;;;;;;3.20;1.17;;;25.00;99.80;;;;;;4880997;29;20304;-75
2023/07/16 15:06:52;;;;;;;1.85;1.25;;;24.90;99.10;;;;;;4881114;29;20320;-76
2023/07/16 15:09:19;;;;;;;2.15;1.30;;;24.90;99.20;;;;;;4880782;29;20235;-77
2023/07/16 15:11:46;;;;;;;2.25;1.13;;;24.70;99.00;;;;;;4880586;29;20243;-76
2023/07/16 15:14:14;;;;;;;3.38;1.23;;;24.70;98.90;;;;;;4880925;29;20237;-78
2023/07/16 15:16:41;;;;;;;2.38;1.00;;;24.60;98.90;;;;;;4880835;29;20205;-76
2023/07/16 15:19:09;;;;;;;2.20;1.10;;;24.60;98.50;;;;;;4880857;29;20231;-76
2023/07/16 15:21:37;;;;;;;2.58;0.77;;;24.50;98.20;;;;;;4880156;29;20211;-77
2023/07/16 15:24:04;;;;;;;1.55;0.80;;;24.20;98.20;;;;;;4880639;29;20238;-76
2023/07/16 15:26:31;;;;;;;1.30;0.75;;;24.30;98.50;;;;;;4880473;29;20218;-75
2023/07/16 15:28:58;;;;;;;2.97;0.90;;;24.40;98.80;;;;;;4880830;29;20306;-75
2023/07/16 15:31:27;;;;;;;0.88;0.70;;;24.40;99.90;;;;;;4880267;29;20213;-77
2023/07/16 15:33:54;;;;;;;1.13;0.60;;;24.10;98.60;;;;;;4880411;29;20274;-77
2023/07/16 15:36:21;;;;;;;2.53;0.90;;;24.00;98.60;;;;;;4880273;29;20200;-72
2023/07/16 15:38:48;;;;;;;1.77;1.02;;;23.90;98.70;;;;;;4879959;29;20241;-77
2023/07/16 15:41:17;;;;;;;3.55;0.80;;;24.00;99.90;;;;;;4879232;29;20433;-76
2023/07/16 15:43:48;;;;;;;2.55;1.23;;;23.70;99.90;;;;;;4880173;29;20231;-76
2023/07/16 15:46:15;;;;;;;4.78;1.15;;;23.60;99.90;;;;;;4879710;29;20666;-74
2023/07/16 15:48:45;;;;;;;2.13;1.20;;;23.40;99.90;;;;;;4880514;29;20265;-77
2023/07/16 15:51:12;;;;;;;3.25;1.30;;;23.50;99.90;;;;;;4879640;29;20216;-75
2023/07/16 15:53:38;;;;;;;1.83;1.00;;;23.50;99.90;;;;;;4879686;29;20247;-76
2023/07/16 15:56:05;;;;;;;2.75;1.05;;;23.40;99.90;;;;;;4879743;29;20242;-76
2023/07/16 15:58:32;;;;;;;1.73;1.13;;;23.40;99.90;;;;;;4879725;29;20231;-76
2023/07/16 16:00:59;;;;;;;2.22;1.13;;;23.10;99.90;;;;;;4879647;29;20203;-75
2023/07/16 16:03:26;;;;;;;3.83;1.30;;;23.00;99.90;;;;;;4880164;29;20298;-75
2023/07/16 16:05:55;;;;;;;2.88;1.00;;;23.00;99.90;;;;;;4879965;29;20320;-76
2023/07/16 16:08:22;;;;;;;2.58;1.20;;;23.10;99.90;;;;;;4879649;29;20231;-74
2023/07/16 16:10:51;;;;;;;4.50;1.35;;;23.10;99.90;;;;;;4879977;29;20250;-76
2023/07/16 16:13:18;;;;;;;3.33;1.02;;;23.10;99.90;;;;;;4879564;29;20796;-72
2023/07/16 16:15:46;;;;;;;1.83;1.23;;;23.20;99.90;;;;;;4879636;29;20559;-75
2023/07/16 16:18:14;;;;;;;3.10;1.17;;;23.40;99.90;;;;;;4879333;29;20254;-74
2023/07/16 16:20:41;;;;;;;2.95;1.38;;;23.50;99.90;;;;;;4879121;29;20294;-72
2023/07/16 16:23:09;;;;;;;1.63;1.15;;;23.50;99.90;;;;;;4879364;29;20219;-76
2023/07/16 16:25:36;;;;;;;3.03;1.63;;;23.50;99.90;;;;;;4880034;29;20215;-75
2023/07/16 16:28:05;;;;;;;5.07;1.65;;;23.40;99.90;;;;;;4879452;29;20219;-74
2023/07/16 16:30:32;;;;;;;2.90;1.50;;;23.50;99.90;;;;;;4879257;29;20207;-74
2023/07/16 16:33:02;;;;;;;3.10;1.20;;;23.30;99.90;;;;;;4879078;29;20241;-76
2023/07/16 16:35:29;;;;;;;4.50;1.38;;;23.10;99.90;;;;;;4879319;29;20199;-73
2023/07/16 16:37:56;;;;;;;3.88;1.60;;;22.90;99.90;;;;;;4879073;29;20659;-76
2023/07/16 16:40:24;;;;;;;3.15;1.20;;;22.70;99.90;;;;;;4879446;29;20570;-76
2023/07/16 16:42:51;;;;;;;2.30;1.52;;;22.60;99.90;;;;;;4879562;29;20207;-76
2023/07/16 16:45:18;;;;;;;2.30;1.50;;;22.50;99.90;;;;;;4879029;29;20218;-74
2023/07/16 16:47:45;;;;;;;2.08;1.50;;;22.40;99.90;;;;;;4878996;29;20203;-75
2023/07/16 16:50:14;;;;;;;1.65;1.20;;;22.10;99.90;;;;;;4879271;29;20235;-73
2023/07/16 16:52:41;;;;;;;2.80;1.70;;;22.10;99.90;;;;;;4878816;29;20234;-74
2023/07/16 16:55:09;;;;;;;3.75;1.20;;;22.00;99.90;;;;;;4878926;29;20697;-73
2023/07/16 16:57:37;;;;;;;4.38;1.30;;;22.00;99.90;;;;;;4878839;29;20219;-75
2023/07/16 17:00:10;;;;;;;2.72;1.50;;;21.90;99.90;;;;;;4878958;29;20321;-74
2023/07/16 17:02:37;;;;;;;2.72;1.33;;;21.90;99.90;;;;;;4878932;29;20219;-75
2023/07/16 17:05:05;;;;;;;4.05;1.33;;;21.80;99.90;;;;;;4879525;29;20215;-75
2023/07/16 17:07:31;;;;;;;5.10;1.13;;;21.70;99.90;;;;;;4878862;29;20203;-76
2023/07/16 17:09:58;;;;;;;3.15;1.35;;;21.60;99.90;;;;;;4879264;29;20231;-74
2023/07/16 17:12:25;;;;;;;3.33;1.40;;;21.70;99.90;;;;;;4878718;29;20325;-75
2023/07/16 17:14:53;;;;;;;2.45;1.50;;;21.60;99.90;;;;;;4878993;29;20211;-75
2023/07/16 17:17:20;;;;;;;1.98;1.40;;;21.70;99.90;;;;;;4878944;29;20726;-74
2023/07/16 17:19:48;;;;;;;2.40;1.45;;;21.80;99.90;;;;;;4879014;29;20241;-73
2023/07/16 17:22:17;;;;;;;4.43;1.60;;;21.90;99.90;;;;;;4878709;29;20602;-75
2023/07/16 17:24:44;;;;;;;4.70;1.50;;;22.20;99.90;;;;;;4878530;29;20275;-75
2023/07/16 17:27:16;;;;;;;3.55;1.75;;;22.50;99.90;;;;;;4879004;29;20259;-76
2023/07/16 17:29:43;;;;;;;3.35;1.30;;;22.50;99.90;;;;;;4878866;29;20266;-74
2023/07/16 17:32:11;;;;;;;3.22;1.55;;;22.40;99.90;;;;;;4878882;29;20237;-74
2023/07/16 17:34:40;;;;;;;3.80;1.48;;;22.30;99.90;;;;;;4878716;29;20670;-75
2023/07/16 17:37:08;;;;;;;2.85;1.38;;;22.20;99.90;;;;;;4878821;29;20634;-74
2023/07/16 17:39:35;;;;;;;3.72;1.40;;;22.10;99.90;;;;;;4878639;29;20231;-75
2023/07/16 17:42:02;;;;;;;2.33;1.30;;;22.10;99.90;;;;;;4878845;29;20211;-75
2023/07/16 17:44:30;;;;;;;2.28;1.10;;;22.10;99.90;;;;;;4878728;29;20215;-74
2023/07/16 17:46:57;;;;;;;3.13;1.48;;;22.30;99.90;;;;;;4879178;29;20615;-75
2023/07/16 17:49:25;;;;;;;2.97;1.55;;;22.30;99.90;;;;;;4878918;29;20235;-75
2023/07/16 17:51:53;;;;;;;3.40;1.67;;;22.40;99.90;;;;;;4878576;29;20274;-74
2023/07/16 17:54:21;;;;;;;2.45;1.63;;;22.40;99.90;;;;;;4878577;29;20239;-75
2023/07/16 17:56:47;;;;;;;2.63;1.60;;;22.40;99.90;;;;;;4878559;29;20219;-75
2023/07/16 17:59:14;;;;;;;2.85;1.40;;;22.40;99.90;;;;;;4878902;29;20231;-73
2023/07/16 18:01:41;;;;;;;3.70;1.45;;;22.30;99.90;;;;;;4879095;29;20221;-73
2023/07/16 18:04:08;;;;;;;1.77;1.20;;;22.10;99.90;;;;;;4881099;29;20211;-75
2023/07/16 18:06:36;;;;;;;2.65;1.20;;;22.00;99.90;;;;;;4882302;29;20306;-75
2023/07/16 18:09:05;;;;;;;1.88;1.15;;;21.90;99.90;;;;;;4881790;29;20238;-75
2023/07/16 18:11:32;;;;;;;4.53;1.50;;;21.80;99.90;;;;;;4882190;29;20590;-75
2023/07/16 18:13:59;;;;;;;4.30;1.50;;;21.80;99.90;;;;;;4882138;29;20243;-74
2023/07/16 18:16:25;;;;;;;2.38;1.25;;;21.80;99.90;;;;;;4882361;29;20221;-73
2023/07/16 18:18:52;;;;;;;4.47;1.58;;;21.80;99.90;;;;;;4882191;29;20235;-74
2023/07/16 18:21:20;;;;;;;4.45;1.70;;;21.70;99.90;;;;;;4882027;29;20578;-73
2023/07/16 18:23:48;;;;;;;3.45;1.65;;;21.50;99.90;;;;;;4881627;29;20207;-75
2023/07/16 18:26:15;;;;;;;2.38;1.50;;;21.40;99.90;;;;;;4882040;29;20594;-74
2023/07/16 18:28:42;;;;;;;2.63;1.38;;;21.40;99.90;;;;;;4881902;29;20329;-75
2023/07/16 18:31:08;;;;;;;3.88;1.50;;;21.30;99.90;;;;;;4882059;29;20214;-74
2023/07/16 18:33:35;;;;;;;2.90;1.23;;;21.40;99.90;;;;;;4881877;29;20701;-76
2023/07/16 18:36:02;;;;;;;3.50;1.30;;;21.20;99.90;;;;;;4881760;29;20298;-76
2023/07/16 18:38:29;;;;;;;5.35;1.25;;;21.20;99.90;;;;;;4881320;29;20239;-74
2023/07/16 18:40:57;;;;;;;7.63;1.70;;;21.20;99.90;;;;;;4881850;29;20221;-74
2023/07/16 18:43:24;;;;;;;4.25;1.75;;;21.10;99.90;;;;;;4881668;29;20301;-74
2023/07/16 18:45:51;;;;;;;3.63;1.45;;;21.10;99.90;;;;;;4881626;29;20293;-75
2023/07/16 18:48:17;;;;;;;3.00;1.30;;;21.10;99.90;;;;;;4881564;29;20258;-74
2023/07/16 18:50:44;;;;;;;3.15;1.30;;;21.20;99.90;;;;;;4881907;29;20211;-74
2023/07/16 18:53:11;;;;;;;2.97;1.40;;;21.20;99.90;;;;;;4881372;29;20269;-74
2023/07/16 18:55:38;;;;;;;1.52;1.23;;;21.00;99.90;;;;;;4881695;29;20211;-74
2023/07/16 18:58:06;;;;;;;6.30;1.52;;;21.00;99.90;;;;;;4881313;29;20207;-75
2023/07/16 19:00:33;;;;;;;3.42;1.42;;;21.00;99.90;;;;;;4881443;29;20683;-75
2023/07/16 19:03:00;;;;;;;3.50;1.33;;;21.00;99.90;;;;;;4881252;29;20218;-75
2023/07/16 19:05:26;;;;;;;2.40;1.38;;;20.90;99.90;;;;;;4881330;29;20219;-75
2023/07/16 19:07:53;;;;;;;2.55;1.10;;;20.90;99.90;;;;;;4881151;29;20223;-74
2023/07/16 19:10:20;;;;;;;3.63;1.35;;;20.80;99.90;;;;;;4881110;29;20211;-75
2023/07/16 19:12:47;;;;;;;2.13;1.13;;;20.80;99.90;;;;;;4881081;29;20218;-74
2023/07/16 19:15:15;;;;;;;2.78;1.33;;;20.60;99.90;;;;;;4880124;29;20215;-73
2023/07/16 19:17:42;;;;;;;3.03;1.58;;;20.60;99.90;;;;;;4881193;29;20222;-75
2023/07/16 19:20:10;;;;;;;3.05;1.40;;;20.40;99.90;;;;;;4880729;29;20329;-74
2023/07/16 19:22:37;;;;;;;2.80;1.60;;;20.50;99.90;;;;;;4880872;29;20219;-73
2023/07/16 19:25:04;;;;;;;2.65;1.30;;;20.50;99.90;;;;;;4880925;29;20217;-75
2023/07/16 19:27:32;;;;;;;2.90;1.70;;;20.40;99.90;;;;;;4881008;29;20574;-74
2023/07/16 19:30:00;;;;;;;6.35;1.92;;;20.30;99.90;;;;;;4880867;29;20235;-75
2023/07/16 19:32:29;;;;;;;2.03;1.15;;;20.30;99.90;;;;;;4880533;29;20215;-71
2023/07/16 19:34:55;;;;;;;3.22;1.55;;;20.20;99.90;;;;;;4880499;29;20715;-75
2023/07/16 19:37:22;;;;;;;2.58;1.50;;;20.10;99.90;;;;;;4880851;29;20214;-75
2023/07/16 19:39:49;;;;;;;2.47;1.48;;;20.00;99.90;;;;;;4880619;29;20227;-75
2023/07/16 19:42:16;;;;;;;2.97;1.35;;;19.90;99.90;;;;;;4880246;29;20211;-74
2023/07/16 19:44:44;;;;;;;2.58;1.58;;;19.90;99.90;;;;;;4880164;29;20215;-74
2023/07/16 19:47:10;;;;;;;2.63;1.30;;;19.90;99.90;;;;;;4880456;29;20219;-74
2023/07/16 19:49:39;;;;;;;4.95;1.50;;;19.90;99.90;;;;;;4880503;29;20291;-76
2023/07/16 19:52:06;;;;;;;2.25;1.27;;;19.90;99.90;;;;;;4880224;29;20215;-75
2023/07/16 19:54:33;;;;;;;2.13;1.10;;;19.80;99.90;;;;;;4880027;29;20734;-74
2023/07/16 19:57:00;;;;;;;4.75;1.30;;;19.70;99.90;;;;;;4880153;29;20298;-74
2023/07/16 19:59:27;;;;;;;2.58;1.40;;;19.70;99.90;;;;;;4880066;29;20235;-75
2023/07/16 20:01:54;;;;;;;1.67;1.25;;;19.70;99.90;;;;;;4876881;29;20215;-74
2023/07/16 20:04:21;;;;;;;1.73;1.20;;;19.70;99.90;;;;;;4879785;29;20301;-73
2023/07/16 20:06:49;;;;;;;2.10;1.20;;;19.60;99.90;;;;;;4880082;29;20207;-73
2023/07/16 20:09:17;;;;;;;1.80;0.90;;;19.60;99.90;;;;;;4879933;29;20241;-73
2023/07/16 20:11:43;;;;;;;4.22;1.30;;;19.60;99.90;;;;;;4879726;29;20689;-74
2023/07/16 20:14:10;;;;;;;1.40;0.93;;;19.60;99.90;;;;;;4879624;29;20242;-72
2023/07/16 20:16:39;;;;;;;2.60;1.20;;;19.60;99.90;;;;;;4879588;29;20211;-73
2023/07/16 20:19:06;;;;;;;4.35;1.25;;;19.60;99.90;;;;;;4878396;29;20230;-73
2023/07/16 20:21:32;;;;;;;4.32;1.30;;;19.60;99.90;;;;;;4878225;29;20215;-74
2023/07/16 20:24:02;;;;;;;4.60;1.08;;;19.60;99.90;;;;;;4877799;29;20210;-73
2023/07/16 20:26:29;;;;;;;2.67;0.85;;;19.60;99.90;;;;;;4877383;29;20211;-74
2023/07/16 20:28:58;;;;;;;2.03;1.25;;;19.70;99.90;;;;;;4877964;29;20738;-74
2023/07/16 20:31:25;;;;;;;1.60;1.20;;;19.70;99.90;;;;;;4877525;29;20215;-74
2023/07/16 20:33:53;;;;;;;3.13;1.20;;;19.70;99.90;;;;;;4877470;29;20239;-73
2023/07/16 20:36:20;;;;;;;5.05;1.25;;;19.80;99.90;;;;;;4877640;29;20294;-73
2023/07/16 20:38:46;;;;;;;2.33;0.98;;;19.80;99.90;;;;;;4877511;29;20235;-74
2023/07/16 20:41:16;;;;;;;1.42;0.93;;;19.70;99.90;;;;;;4877161;29;20681;-74
2023/07/16 20:43:42;;;;;;;2.80;1.20;;;19.60;99.90;;;;;;4877845;29;20221;-77
2023/07/16 20:46:09;;;;;;;2.80;1.30;;;19.60;99.90;;;;;;4877337;29;20207;-73
2023/07/16 20:48:41;;;;;;;1.50;1.15;;;19.60;99.90;;;;;;4877053;29;20242;-76
2023/07/16 20:51:09;;;;;;;1.27;0.80;;;19.60;99.90;;;;;;4876979;29;20275;-75
2023/07/16 20:53:35;;;;;;;1.50;0.82;;;19.60;99.90;;;;;;4877283;29;20235;-75
2023/07/16 20:56:03;;;;;;;2.45;1.15;;;19.60;99.90;;;;;;4877043;29;20679;-76
2023/07/16 20:58:31;;;;;;;2.42;1.08;;;19.60;99.90;;;;;;4877926;29;20315;-73
2023/07/16 21:00:58;;;;;;;1.95;1.00;;;19.60;99.90;;;;;;4878251;29;20566;-76
2023/07/16 21:03:27;;;;;;;2.90;0.93;;;19.60;99.90;;;;;;4878630;29;20200;-74
2023/07/16 21:05:53;;;;;;;3.67;0.93;;;19.60;99.90;;;;;;4875304;29;20207;-75
